»·PEaware :: N349AF KBUR-KLAS

N349AF :: KBUR-KLAS

FLIGHT INFORMATION

Flight Status: Arrived
Operator: Privately registered:
United States
More flights under this callsign
Pilot: Sean M. (20132)
Aircraft: Unknown
(SF50)
More flights by this aircraft type
Origin: KBUR Bob Hope-Burbank
United States
Destination: KLAS McCarran Intl
United States
More flights between these airports :: More routes between these airports
Route: VNY3 DAG MISEN KEPEC6
File this flight plan on PilotEdge
Remarks: I5 Rating
Altitude:
(Current/Filed)
25,000ft
Speed:
(Current/Filed)
250kts
Departed: 29-Sep-18 11:24 AM
Arrived: 29-Sep-18 12:27 PM
Distance/Time
Traveled:
194nm/1:03
Distance/Time
To Go:
Arrived

Flight Plot

Page will automatically refresh every two minutes.

Flight plan parsing failed; only flown route is shown


Map Options




Map Legend


Flown Route
Filed Route
Departure Airport
Arrival Airport
Navaid (VOR, NDB)
Fix

Horizontal Profiles

Position Reports

Time Latitude Longitude Heading Altitude Ground
Speed
29-Sep-18 11:01 34.200203 -118.358745 263 721ft 0kts
29-Sep-18 11:02 34.200203 -118.358745 263 721ft 0kts
29-Sep-18 11:03 34.200203 -118.358745 263 721ft 0kts
29-Sep-18 11:04 34.200203 -118.358745 263 721ft 0kts
29-Sep-18 11:05 34.200203 -118.358745 263 721ft 0kts
29-Sep-18 11:06 34.200203 -118.358745 263 721ft 0kts
29-Sep-18 11:07 34.200203 -118.358745 263 721ft 0kts
29-Sep-18 11:08 34.200203 -118.358745 263 721ft 0kts
29-Sep-18 11:09 34.200203 -118.358745 263 721ft 0kts
29-Sep-18 11:10 34.200203 -118.358745 263 721ft 0kts
29-Sep-18 11:11 34.200203 -118.358745 263 721ft 0kts
29-Sep-18 11:12 34.200203 -118.358745 263 721ft 0kts
29-Sep-18 11:13 34.200203 -118.358745 263 721ft 0kts
29-Sep-18 11:14 34.200203 -118.358745 263 721ft 0kts
29-Sep-18 11:15 34.200203 -118.358745 263 721ft 0kts
29-Sep-18 11:16 34.200270 -118.358883 320 722ft 0kts
29-Sep-18 11:17 34.200984 -118.359305 9 725ft 15kts
29-Sep-18 11:18 34.203575 -118.359176 353 735ft 10kts
29-Sep-18 11:19 34.207913 -118.360377 345 751ft 28kts
29-Sep-18 11:20 34.212013 -118.361406 50 769ft 0kts
29-Sep-18 11:21 34.212013 -118.361406 50 769ft 0kts
29-Sep-18 11:22 34.212013 -118.361406 50 769ft 0kts
29-Sep-18 11:23 34.212013 -118.361406 50 769ft 0kts
29-Sep-18 11:24 34.212057 -118.361342 55 769ft 4kts
29-Sep-18 11:25 34.211591 -118.360267 164 766ft 26kts
29-Sep-18 11:26 34.191884 -118.357142 200 2005ft 121kts
29-Sep-18 11:27 34.175578 -118.379823 252 3950ft 150kts
29-Sep-18 11:28 34.190674 -118.404174 347 5820ft 166kts
29-Sep-18 11:29 34.218675 -118.413514 344 7643ft 173kts
29-Sep-18 11:30 34.252403 -118.423505 344 9597ft 181kts
29-Sep-18 11:31 34.289772 -118.434116 340 11631ft 184kts
29-Sep-18 11:32 34.329413 -118.445472 339 13603ft 189kts
29-Sep-18 11:33 34.375406 -118.457346 1 15613ft 202kts
29-Sep-18 11:34 34.413483 -118.412089 53 17616ft 213kts
29-Sep-18 11:35 34.448277 -118.356883 53 19469ft 221kts
29-Sep-18 11:36 34.483996 -118.299974 53 21159ft 229kts
29-Sep-18 11:37 34.520733 -118.241344 53 22721ft 236kts
29-Sep-18 11:38 34.558115 -118.181606 53 24159ft 243kts
29-Sep-18 11:39 34.597185 -118.119015 53 25026ft 273kts
29-Sep-18 11:40 34.634326 -118.039320 84 25022ft 312kts
29-Sep-18 11:41 34.645549 -117.937309 85 25007ft 336kts
29-Sep-18 11:42 34.657110 -117.831355 86 24995ft 338kts
29-Sep-18 11:43 34.673777 -117.726682 75 25011ft 341kts
29-Sep-18 11:44 34.699994 -117.624094 75 25017ft 341kts
29-Sep-18 11:45 34.726458 -117.520636 75 25021ft 341kts
29-Sep-18 11:46 34.752866 -117.416875 75 25020ft 341kts
29-Sep-18 11:47 34.779255 -117.312824 75 25015ft 340kts
29-Sep-18 11:48 34.805089 -117.210555 75 25002ft 340kts
29-Sep-18 11:49 34.831063 -117.107202 75 24983ft 340kts
29-Sep-18 11:50 34.856873 -117.004088 76 24970ft 339kts
29-Sep-18 11:51 34.882603 -116.901032 75 24964ft 338kts
29-Sep-18 11:52 34.908252 -116.797896 75 24964ft 337kts
29-Sep-18 11:53 34.933493 -116.695935 76 24967ft 337kts
29-Sep-18 11:54 34.958732 -116.593307 76 24886ft 340kts
29-Sep-18 11:55 35.018047 -116.509017 45 24604ft 352kts
29-Sep-18 11:56 35.083869 -116.427013 45 23775ft 369kts
29-Sep-18 11:57 35.154130 -116.339213 46 22649ft 379kts
29-Sep-18 11:58 35.225903 -116.249243 46 20837ft 369kts
29-Sep-18 11:59 35.295979 -116.161174 46 19045ft 358kts
29-Sep-18 12:00 35.364167 -116.075254 46 17327ft 351kts
29-Sep-18 12:01 35.430890 -115.990947 46 15821ft 342kts
29-Sep-18 12:02 35.495921 -115.908580 47 14478ft 334kts
29-Sep-18 12:03 35.556431 -115.831971 46 13161ft 329kts
29-Sep-18 12:04 35.613747 -115.759435 45 12927ft 323kts
29-Sep-18 12:05 35.670291 -115.687229 48 12922ft 334kts
29-Sep-18 12:06 35.727269 -115.614550 48 12911ft 335kts
29-Sep-18 12:07 35.797843 -115.573367 0 12930ft 334kts
29-Sep-18 12:08 35.876128 -115.568900 0 12923ft 335kts
29-Sep-18 12:09 35.951041 -115.561858 19 12825ft 339kts
29-Sep-18 12:10 35.993766 -115.494153 72 11296ft 317kts
29-Sep-18 12:11 36.019088 -115.413459 70 11007ft 289kts
29-Sep-18 12:12 36.030197 -115.346518 106 10763ft 288kts
29-Sep-18 12:13 36.023630 -115.269830 98 9893ft 288kts
29-Sep-18 12:14 36.017629 -115.187431 98 9033ft 278kts
29-Sep-18 12:15 36.011988 -115.105563 99 8047ft 266kts
29-Sep-18 12:16 36.007007 -115.025324 99 6883ft 256kts
29-Sep-18 12:17 36.002963 -114.950162 99 6510ft 231kts
29-Sep-18 12:18 35.994638 -114.881647 136 6503ft 239kts
29-Sep-18 12:19 35.940484 -114.876044 147 6534ft 242kts
29-Sep-18 12:20 35.947135 -114.812898 28 6377ft 288kts
29-Sep-18 12:21 36.020008 -114.807404 350 6077ft 297kts
29-Sep-18 12:22 36.060661 -114.870534 291 5010ft 240kts
29-Sep-18 12:23 36.073557 -114.928846 260 5111ft 130kts
29-Sep-18 12:24 36.073569 -114.965394 262 4626ft 126kts
29-Sep-18 12:25 36.073589 -115.003539 263 4056ft 133kts
29-Sep-18 12:26 36.073605 -115.038712 262 3495ft 132kts
29-Sep-18 12:27 36.073590 -115.073158 263 2938ft 131kts
29-Sep-18 12:28 36.073685 -115.107568 264 2390ft 127kts
29-Sep-18 12:29 36.073499 -115.138580 270 2076ft 37kts
29-Sep-18 12:30 36.073694 -115.141450 279 2084ft 16kts
29-Sep-18 12:31 36.075260 -115.146270 327 2098ft 16kts
29-Sep-18 12:32 36.077943 -115.146549 349 2096ft 6kts
29-Sep-18 12:33 36.078468 -115.146606 54 2095ft 1kts
29-Sep-18 12:34 36.079069 -115.145292 74 2088ft 0kts

Navigation Log

Ident Type
Flight plan parsing failed, navigation log unavailable